createdAt,value
2022-10-30T00:01:16.001Z,100287.56
2022-10-30T00:03:44.150Z,100277.59
2022-10-30T00:06:12.988Z,100274.59
2022-10-30T00:08:41.927Z,100276.47
2022-10-30T00:11:12.527Z,100273.63
2022-10-30T00:13:45.026Z,100256.47
2022-10-30T00:16:13.994Z,100258.81
2022-10-30T00:18:45.379Z,100259.41
2022-10-30T00:21:16.525Z,100262.25
2022-10-30T00:23:47.228Z,100252.38
2022-10-30T00:26:16.789Z,100257.41
2022-10-30T00:28:50.690Z,100256.28
2022-10-30T00:31:20.014Z,100255.44
2022-10-30T00:33:50.734Z,100257.75
2022-10-30T00:36:20.205Z,100250.34
2022-10-30T00:38:48.338Z,100249.47
2022-10-30T00:41:19.787Z,100247.44
2022-10-30T00:43:49.704Z,100237.09
2022-10-30T00:46:22.549Z,100228.19
2022-10-30T00:48:54.072Z,100245.78
2022-10-30T00:51:23.400Z,100236.81
2022-10-30T00:53:52.703Z,100230.31
2022-10-30T00:56:23.173Z,100227.97
2022-10-30T00:58:58.278Z,100231.47
2022-10-30T01:01:30.074Z,100223.19
2022-10-30T01:04:01.502Z,100234.16
2022-10-30T01:06:30.652Z,100228.38
2022-10-30T01:09:00.347Z,100229.97
2022-10-30T01:11:29.006Z,100224.88
2022-10-30T01:14:01.224Z,100224.31
2022-10-30T01:16:46.010Z,100211.81
2022-10-30T01:19:23.419Z,100208.56
2022-10-30T01:22:03.744Z,100203.03
2022-10-30T01:24:45.385Z,100205.25
2022-10-30T01:27:24.898Z,100205.25
2022-10-30T01:30:01.482Z,100207.13
2022-10-30T01:32:41.889Z,100210.75
2022-10-30T01:35:16.440Z,100224.69
2022-10-30T01:37:51.839Z,100218.41
2022-10-30T01:40:21.362Z,100219.94
2022-10-30T01:42:52.660Z,100206.03
2022-10-30T01:45:42.359Z,100212.75
2022-10-30T01:48:59.385Z,100208.97
2022-10-30T01:51:45.433Z,100208.34
2022-10-30T01:54:21.697Z,100192.88
2022-10-30T01:57:01.034Z,100196.59
2022-10-30T01:59:32.940Z,100183.22
2022-10-30T02:02:04.220Z,100190.56
2022-10-30T02:04:33.281Z,100197.88
2022-10-30T02:07:02.577Z,100192.91
2022-10-30T02:09:33.281Z,100203.03
2022-10-30T02:12:03.431Z,100194.03
2022-10-30T02:14:36.528Z,100201.78
2022-10-30T02:17:09.700Z,100187.16
2022-10-30T02:19:40.614Z,100187.56
2022-10-30T02:22:10.513Z,100183.75
2022-10-30T02:24:43.214Z,100171.78
2022-10-30T02:27:12.310Z,100181.94
2022-10-30T02:29:45.535Z,100179.22
2022-10-30T02:32:14.086Z,100182.47
2022-10-30T02:34:44.123Z,100175.03
2022-10-30T02:37:14.440Z,100183.88
2022-10-30T02:39:44.441Z,100180.50
2022-10-30T02:42:13.033Z,100182.22
2022-10-30T02:44:42.937Z,100178.56
2022-10-30T02:47:12.109Z,100178.09
2022-10-30T02:49:42.679Z,100179.50
2022-10-30T02:52:12.175Z,100182.09
2022-10-30T02:54:45.163Z,100178.09
2022-10-30T02:57:14.127Z,100176.56
2022-10-30T02:59:45.306Z,100176.38
2022-10-30T03:02:14.155Z,100172.91
2022-10-30T03:04:45.655Z,100178.09
2022-10-30T03:07:14.215Z,100177.50
2022-10-30T03:09:48.533Z,100172.84
2022-10-30T03:12:16.630Z,100189.88
2022-10-30T03:14:47.882Z,100189.00
2022-10-30T03:17:16.195Z,100174.75
2022-10-30T03:19:44.447Z,100188.81
2022-10-30T03:22:13.135Z,100189.06
2022-10-30T03:24:43.530Z,100189.25
2022-10-30T03:27:13.557Z,100199.13
2022-10-30T03:29:45.580Z,100196.00
2022-10-30T03:32:14.264Z,100187.56
2022-10-30T03:34:54.275Z,100192.06
2022-10-30T03:37:22.297Z,100185.44
2022-10-30T03:39:52.496Z,100189.25
2022-10-30T03:42:24.452Z,100185.88
2022-10-30T03:44:54.361Z,100187.44
2022-10-30T03:47:22.382Z,100195.31
2022-10-30T03:49:51.796Z,100195.47
2022-10-30T03:52:21.778Z,100192.91
2022-10-30T03:54:52.046Z,100194.75
2022-10-30T03:57:21.654Z,100193.91
2022-10-30T04:00:16.106Z,100203.34
2022-10-30T04:02:55.543Z,100199.94
2022-10-30T04:05:27.346Z,100201.50
2022-10-30T04:07:58.318Z,100206.25
2022-10-30T04:10:28.885Z,100205.53
2022-10-30T04:13:01.756Z,100196.69
2022-10-30T04:15:32.949Z,100197.09
2022-10-30T04:18:02.017Z,100189.75
2022-10-30T04:20:32.203Z,100193.19
2022-10-30T04:23:02.959Z,100190.94
2022-10-30T04:25:34.983Z,100191.94
2022-10-30T04:28:04.562Z,100190.38
2022-10-30T04:30:36.947Z,100191.50
2022-10-30T04:33:08.235Z,100197.69
2022-10-30T04:35:45.836Z,100188.97
2022-10-30T04:38:19.695Z,100189.13
2022-10-30T04:40:50.458Z,100192.03
2022-10-30T04:43:20.359Z,100192.91
2022-10-30T04:45:55.673Z,100181.38
2022-10-30T04:48:24.252Z,100187.56
2022-10-30T04:50:53.806Z,100198.28
2022-10-30T04:53:26.624Z,100192.19
2022-10-30T04:56:02.272Z,100198.44
2022-10-30T04:58:33.724Z,100188.84
2022-10-30T05:01:07.299Z,100188.94
2022-10-30T05:03:37.328Z,100191.25
2022-10-30T05:06:18.593Z,100185.16
2022-10-30T05:08:47.265Z,100184.72
2022-10-30T05:11:27.618Z,100192.34
2022-10-30T05:13:59.213Z,100185.59
2022-10-30T05:16:30.063Z,100190.25
2022-10-30T05:19:00.562Z,100191.78
2022-10-30T05:21:30.872Z,100187.97
2022-10-30T05:24:00.283Z,100190.09
2022-10-30T05:26:32.319Z,100187.00
2022-10-30T05:29:01.375Z,100185.41
2022-10-30T05:31:32.552Z,100175.69
2022-10-30T05:34:24.414Z,100186.41
2022-10-30T05:36:55.799Z,100191.22
2022-10-30T05:39:24.441Z,100196.00
2022-10-30T05:41:55.011Z,100186.25
2022-10-30T05:44:40.739Z,100196.66
2022-10-30T05:47:17.693Z,100195.41
2022-10-30T05:49:51.466Z,100199.78
2022-10-30T05:52:22.648Z,100203.19
2022-10-30T05:54:53.596Z,100210.63
2022-10-30T05:57:42.784Z,100221.44
2022-10-30T06:00:13.539Z,100213.41
2022-10-30T06:02:46.244Z,100227.53
2022-10-30T06:05:17.419Z,100225.38
2022-10-30T06:07:45.978Z,100230.31
2022-10-30T06:10:16.524Z,100236.94
2022-10-30T06:13:07.431Z,100232.91
2022-10-30T06:15:42.047Z,100240.63
2022-10-30T06:18:12.916Z,100239.94
2022-10-30T06:20:46.482Z,100229.88
2022-10-30T06:23:36.966Z,100232.59
2022-10-30T06:26:28.357Z,100227.66
2022-10-30T06:29:03.172Z,100228.59
2022-10-30T06:31:32.416Z,100237.34
2022-10-30T06:34:05.464Z,100242.56
2022-10-30T06:36:36.444Z,100246.97
2022-10-30T06:39:11.149Z,100245.31
2022-10-30T06:41:54.135Z,100246.97
2022-10-30T06:44:29.027Z,100248.13
2022-10-30T06:46:57.073Z,100242.44
2022-10-30T06:49:27.846Z,100247.25
2022-10-30T06:51:56.510Z,100249.78
2022-10-30T06:54:24.699Z,100240.09
2022-10-30T06:57:02.662Z,100245.31
2022-10-30T06:59:45.378Z,100229.38
2022-10-30T07:02:36.459Z,100222.50
2022-10-30T07:05:10.861Z,100203.03
2022-10-30T07:07:39.329Z,100199.69
2022-10-30T07:10:10.979Z,100204.16
2022-10-30T07:13:01.834Z,100209.25
2022-10-30T07:15:51.834Z,100212.16
2022-10-30T07:18:32.476Z,100221.59
2022-10-30T07:21:05.122Z,100225.28
2022-10-30T07:23:34.522Z,100227.56
2022-10-30T07:26:24.092Z,100237.34
2022-10-30T07:28:54.420Z,100238.16
2022-10-30T07:31:41.577Z,100246.84
2022-10-30T07:34:29.493Z,100247.56
2022-10-30T07:37:24.752Z,100260.28
2022-10-30T07:40:13.136Z,100251.84
2022-10-30T07:43:02.901Z,100248.47
2022-10-30T07:45:49.666Z,100252.28
2022-10-30T07:48:45.864Z,100257.88
2022-10-30T07:51:25.491Z,100254.81
2022-10-30T07:53:56.375Z,100247.72
2022-10-30T07:56:26.526Z,100254.13
2022-10-30T07:58:57.632Z,100257.81
2022-10-30T08:01:35.550Z,100244.56
2022-10-30T08:04:25.091Z,100248.97
2022-10-30T08:07:00.180Z,100241.97
2022-10-30T08:09:30.876Z,100248.97
2022-10-30T08:11:59.512Z,100260.22
2022-10-30T08:14:27.794Z,100247.47
2022-10-30T08:16:59.731Z,100246.59
2022-10-30T08:19:28.491Z,100251.78
2022-10-30T08:21:59.954Z,100243.22
2022-10-30T08:24:29.889Z,100234.06
2022-10-30T08:27:01.744Z,100245.78
2022-10-30T08:29:30.564Z,100247.91
2022-10-30T08:31:59.781Z,100236.28
2022-10-30T08:34:56.934Z,100229.09
2022-10-30T08:37:25.004Z,100236.59
2022-10-30T08:39:56.919Z,100228.56
2022-10-30T08:42:45.931Z,100222.91
2022-10-30T08:45:15.340Z,100229.28
2022-10-30T08:47:46.000Z,100229.25
2022-10-30T08:50:16.657Z,100236.94
2022-10-30T08:52:50.724Z,100232.06
2022-10-30T08:55:25.150Z,100225.25
2022-10-30T08:57:53.681Z,100225.94
2022-10-30T09:00:23.962Z,100222.22
2022-10-30T09:03:19.587Z,100226.97
2022-10-30T09:06:21.608Z,100222.53
2022-10-30T09:09:09.636Z,100223.97
2022-10-30T09:11:54.836Z,100225.78
2022-10-30T09:14:23.637Z,100222.28
2022-10-30T09:16:52.887Z,100223.41
2022-10-30T09:19:24.940Z,100239.88
2022-10-30T09:21:54.286Z,100238.91
2022-10-30T09:24:23.593Z,100235.56
2022-10-30T09:26:56.358Z,100231.72
2022-10-30T09:29:27.674Z,100230.06
2022-10-30T09:32:13.519Z,100235.97
2022-10-30T09:35:03.611Z,100234.53
2022-10-30T09:37:36.611Z,100234.00
2022-10-30T09:40:09.890Z,100219.88
2022-10-30T09:42:47.414Z,100223.97
2022-10-30T09:46:02.188Z,100224.25
2022-10-30T09:48:56.575Z,100225.78
2022-10-30T09:52:07.080Z,100221.28
2022-10-30T09:54:49.345Z,100219.03
2022-10-30T09:57:24.381Z,100222.81
2022-10-30T10:00:05.594Z,100224.94
2022-10-30T10:03:05.143Z,100228.03
2022-10-30T10:05:46.920Z,100230.75
2022-10-30T10:08:44.966Z,100225.78
2022-10-30T10:11:36.695Z,100218.31
2022-10-30T10:14:09.584Z,100213.78
2022-10-30T10:16:51.515Z,100220.00
2022-10-30T10:19:22.103Z,100219.56
2022-10-30T10:21:56.978Z,100216.75
2022-10-30T10:24:28.078Z,100227.31
2022-10-30T10:26:58.741Z,100229.28
2022-10-30T10:29:34.719Z,100216.91
2022-10-30T10:32:22.999Z,100219.84
2022-10-30T10:35:03.448Z,100218.28
2022-10-30T10:37:41.086Z,100213.94
2022-10-30T10:40:23.965Z,100211.34
2022-10-30T10:43:03.238Z,100213.16
2022-10-30T10:45:42.179Z,100207.22
2022-10-30T10:48:34.146Z,100212.88
2022-10-30T10:51:04.733Z,100210.91
2022-10-30T10:53:43.115Z,100210.91
2022-10-30T10:56:12.752Z,100200.22
2022-10-30T10:58:47.796Z,100201.19
2022-10-30T11:01:22.677Z,100200.47
2022-10-30T11:03:56.806Z,100188.06
2022-10-30T11:06:27.463Z,100196.13
2022-10-30T11:09:02.409Z,100186.94
2022-10-30T11:11:31.569Z,100181.28
2022-10-30T11:14:00.006Z,100182.00
2022-10-30T11:16:31.647Z,100180.84
2022-10-30T11:19:03.881Z,100188.44
2022-10-30T11:21:36.046Z,100181.28
2022-10-30T11:24:05.076Z,100182.72
2022-10-30T11:26:35.558Z,100176.66
2022-10-30T11:29:06.983Z,100172.66
2022-10-30T11:31:39.095Z,100175.34
2022-10-30T11:34:30.362Z,100177.22
2022-10-30T11:36:59.707Z,100176.63
2022-10-30T11:39:29.233Z,100179.38
2022-10-30T11:42:04.981Z,100171.91
2022-10-30T11:44:37.182Z,100169.38
2022-10-30T11:47:07.549Z,100167.47
2022-10-30T11:49:52.806Z,100160.97
2022-10-30T11:52:23.959Z,100165.34
2022-10-30T11:54:55.241Z,100167.47
2022-10-30T11:57:24.793Z,100180.09
2022-10-30T11:59:59.294Z,100171.28
2022-10-30T12:02:44.149Z,100167.66
2022-10-30T12:06:00.411Z,100162.88
2022-10-30T12:08:28.775Z,100160.09
2022-10-30T12:11:01.934Z,100165.13
2022-10-30T12:13:41.965Z,100176.91
2022-10-30T12:16:15.938Z,100169.91
2022-10-30T12:18:58.839Z,100172.56
2022-10-30T12:21:31.054Z,100173.44
2022-10-30T12:24:06.720Z,100171.38
2022-10-30T12:26:37.296Z,100174.31
2022-10-30T12:29:07.666Z,100170.06
2022-10-30T12:31:40.393Z,100169.38
2022-10-30T12:34:16.802Z,100162.88
2022-10-30T12:36:53.418Z,100159.69
2022-10-30T12:39:26.234Z,100149.09
2022-10-30T12:42:00.742Z,100150.84
2022-10-30T12:44:31.409Z,100153.81
2022-10-30T12:47:04.726Z,100144.53
2022-10-30T12:49:52.232Z,100150.19
2022-10-30T12:52:25.353Z,100155.16
2022-10-30T12:54:57.689Z,100148.38
2022-10-30T12:57:28.102Z,100150.03
2022-10-30T13:00:01.580Z,100155.41
2022-10-30T13:02:50.711Z,100136.13
2022-10-30T13:05:33.482Z,100144.63
2022-10-30T13:08:19.178Z,100138.53
2022-10-30T13:10:52.460Z,100128.53
2022-10-30T13:13:24.987Z,100137.69
2022-10-30T13:15:55.981Z,100134.16
2022-10-30T13:18:26.926Z,100132.78
2022-10-30T13:21:05.504Z,100122.63
2022-10-30T13:23:42.303Z,100127.56
2022-10-30T13:26:19.857Z,100131.13
2022-10-30T13:28:53.558Z,100124.47
2022-10-30T13:31:29.766Z,100125.31
2022-10-30T13:34:04.099Z,100124.03
2022-10-30T13:36:39.380Z,100125.03
2022-10-30T13:39:21.329Z,100125.75
2022-10-30T13:42:06.466Z,100128.00
2022-10-30T13:44:45.934Z,100124.88
2022-10-30T13:47:26.103Z,100127.00
2022-10-30T13:50:22.535Z,100126.59
2022-10-30T13:52:54.800Z,100121.47
2022-10-30T13:55:26.960Z,100125.75
2022-10-30T13:57:59.967Z,100118.75
2022-10-30T14:00:35.150Z,100123.69
2022-10-30T14:03:16.712Z,100117.69
2022-10-30T14:05:48.538Z,100111.59
2022-10-30T14:08:25.316Z,100115.78
2022-10-30T14:11:00.327Z,100122.59
2022-10-30T14:13:47.459Z,100119.06
2022-10-30T14:16:38.526Z,100123.75
2022-10-30T14:19:08.665Z,100115.75
2022-10-30T14:21:52.926Z,100119.97
2022-10-30T14:27:10.155Z,100113.75
2022-10-30T14:30:00.969Z,100108.13
2022-10-30T14:32:41.901Z,100108.38
2022-10-30T14:35:33.832Z,100116.56
2022-10-30T14:38:27.914Z,100116.59
2022-10-30T14:41:32.971Z,100120.25
2022-10-30T14:44:16.818Z,100118.72
2022-10-30T14:46:59.083Z,100116.03
2022-10-30T14:49:55.153Z,100107.84
2022-10-30T14:52:33.194Z,100114.06
2022-10-30T14:55:22.030Z,100104.47
2022-10-30T14:57:53.614Z,100101.66
2022-10-30T15:00:47.064Z,100100.06
2022-10-30T15:03:50.993Z,100098.53
2022-10-30T15:06:25.117Z,100103.16
2022-10-30T15:09:15.679Z,100105.72
2022-10-30T15:12:15.569Z,100095.28
2022-10-30T15:14:55.043Z,100101.34
2022-10-30T15:17:30.013Z,100099.09
2022-10-30T15:20:01.344Z,100097.09
2022-10-30T15:22:30.992Z,100087.09
2022-10-30T15:24:59.900Z,100092.50
2022-10-30T15:27:28.131Z,100086.84
2022-10-30T15:29:57.958Z,100091.06
2022-10-30T15:32:27.473Z,100096.00
2022-10-30T15:35:00.108Z,100079.22
2022-10-30T15:37:28.772Z,100082.03
2022-10-30T15:40:18.305Z,100085.00
2022-10-30T15:42:48.586Z,100089.09
2022-10-30T15:45:20.750Z,100096.56
2022-10-30T15:47:55.677Z,100090.06
2022-10-30T15:50:25.257Z,100087.25
2022-10-30T15:52:54.205Z,100096.44
2022-10-30T15:55:28.290Z,100098.97
2022-10-30T15:58:03.351Z,100090.38
2022-10-30T16:00:36.155Z,100080.78
2022-10-30T16:03:08.121Z,100086.28
2022-10-30T16:05:37.401Z,100089.53
2022-10-30T16:08:13.890Z,100082.94
2022-10-30T16:10:44.445Z,100091.34
2022-10-30T16:13:18.197Z,100094.03
2022-10-30T16:15:47.679Z,100095.16
2022-10-30T16:18:21.056Z,100095.16
2022-10-30T16:20:53.835Z,100093.66
2022-10-30T16:23:22.621Z,100100.06
2022-10-30T16:25:55.563Z,100103.03
2022-10-30T16:28:30.555Z,100102.34
2022-10-30T16:31:01.710Z,100085.47
2022-10-30T16:33:33.555Z,100085.00
2022-10-30T16:36:04.494Z,100089.81
2022-10-30T16:38:36.994Z,100084.59
2022-10-30T16:41:08.479Z,100087.16
2022-10-30T16:43:39.700Z,100093.91
2022-10-30T16:46:34.920Z,100088.84
2022-10-30T16:49:07.358Z,100098.28
2022-10-30T16:51:44.272Z,100089.00
2022-10-30T16:54:22.884Z,100094.06
2022-10-30T16:56:55.715Z,100092.91
2022-10-30T16:59:29.388Z,100106.16
2022-10-30T17:02:01.997Z,100091.25
2022-10-30T17:04:31.656Z,100103.78
2022-10-30T17:07:19.165Z,100101.53
2022-10-30T17:09:52.737Z,100112.38
2022-10-30T17:12:23.206Z,100112.25
2022-10-30T17:14:55.029Z,100116.03
2022-10-30T17:17:31.981Z,100113.47
2022-10-30T17:20:12.518Z,100112.66
2022-10-30T17:22:48.158Z,100109.00
2022-10-30T17:25:30.396Z,100120.81
2022-10-30T17:27:59.803Z,100122.97
2022-10-30T17:30:38.486Z,100119.00
2022-10-30T17:33:27.105Z,100125.63
2022-10-30T17:35:58.670Z,100114.63
2022-10-30T17:38:29.633Z,100117.44
2022-10-30T17:40:59.013Z,100116.59
2022-10-30T17:43:31.044Z,100111.50
2022-10-30T17:45:59.790Z,100112.06
2022-10-30T17:48:30.919Z,100110.28
2022-10-30T17:51:02.251Z,100109.13
2022-10-30T17:53:32.046Z,100119.69
2022-10-30T17:56:06.231Z,100116.72
2022-10-30T17:58:35.177Z,100118.88
2022-10-30T18:01:04.887Z,100122.50
2022-10-30T18:03:34.766Z,100125.03
2022-10-30T18:06:07.380Z,100125.91
2022-10-30T18:08:36.735Z,100125.75
2022-10-30T18:11:07.815Z,100123.22
2022-10-30T18:13:39.133Z,100122.38
2022-10-30T18:16:11.690Z,100118.16
2022-10-30T18:18:50.264Z,100120.81
2022-10-30T18:21:23.794Z,100123.63
2022-10-30T18:23:54.705Z,100118.88
2022-10-30T18:26:25.223Z,100122.63
2022-10-30T18:28:56.371Z,100120.25
2022-10-30T18:31:27.133Z,100119.00
2022-10-30T18:33:56.097Z,100118.00
2022-10-30T18:36:28.266Z,100117.31
2022-10-30T18:39:04.480Z,100116.88
2022-10-30T18:41:36.275Z,100121.53
2022-10-30T18:44:06.548Z,100110.97
2022-10-30T18:46:37.126Z,100113.66
2022-10-30T18:49:07.757Z,100114.22
2022-10-30T18:51:49.358Z,100109.41
2022-10-30T18:54:19.156Z,100105.88
2022-10-30T18:56:49.382Z,100111.81
2022-10-30T18:59:19.404Z,100114.59
2022-10-30T19:01:50.328Z,100117.31
2022-10-30T19:04:22.334Z,100113.78
2022-10-30T19:06:55.430Z,100114.91
2022-10-30T19:09:25.890Z,100103.63
2022-10-30T19:11:54.903Z,100111.09
2022-10-30T19:14:26.485Z,100113.91
2022-10-30T19:16:56.224Z,100107.44
2022-10-30T19:19:26.018Z,100110.97
2022-10-30T19:21:56.477Z,100112.50
2022-10-30T19:24:27.679Z,100114.31
2022-10-30T19:26:58.971Z,100113.63
2022-10-30T19:29:29.892Z,100105.75
2022-10-30T19:32:00.856Z,100112.78
2022-10-30T19:34:31.383Z,100108.84
2022-10-30T19:37:02.909Z,100100.53
2022-10-30T19:39:33.455Z,100112.25
2022-10-30T19:42:03.566Z,100113.88
2022-10-30T19:44:34.850Z,100109.00
2022-10-30T19:47:04.397Z,100114.91
2022-10-30T19:49:34.997Z,100106.75
2022-10-30T19:52:07.796Z,100106.44
2022-10-30T19:54:37.669Z,100106.84
2022-10-30T19:57:13.215Z,100102.50
2022-10-30T19:59:47.860Z,100102.91
2022-10-30T20:02:18.433Z,100106.72
2022-10-30T20:04:51.243Z,100102.94
2022-10-30T20:07:21.864Z,100105.91
2022-10-30T20:09:51.795Z,100103.59
2022-10-30T20:12:21.296Z,100104.75
2022-10-30T20:14:51.162Z,100108.09
2022-10-30T20:17:21.610Z,100109.53
2022-10-30T20:19:52.158Z,100122.78
2022-10-30T20:22:28.032Z,100119.66
2022-10-30T20:24:59.695Z,100108.84
2022-10-30T20:27:31.052Z,100113.75
2022-10-30T20:30:00.322Z,100116.31
2022-10-30T20:32:29.471Z,100118.00
2022-10-30T20:35:01.034Z,100109.28
2022-10-30T20:37:32.036Z,100110.97
2022-10-30T20:40:02.275Z,100101.94
2022-10-30T20:42:36.798Z,100111.09
2022-10-30T20:45:07.183Z,100108.97
2022-10-30T20:47:35.651Z,100103.78
2022-10-30T20:50:05.530Z,100110.38
2022-10-30T20:52:35.141Z,100107.72
2022-10-30T20:55:04.095Z,100108.16
2022-10-30T20:57:32.904Z,100115.47
2022-10-30T21:00:01.902Z,100109.41
2022-10-30T21:02:33.462Z,100126.06
2022-10-30T21:05:17.371Z,100124.50
2022-10-30T21:07:55.512Z,100110.25
2022-10-30T21:10:30.204Z,100120.69
2022-10-30T21:13:03.703Z,100117.88
2022-10-30T21:15:35.529Z,100110.25
2022-10-30T21:18:05.123Z,100110.69
2022-10-30T21:20:35.052Z,100112.38
2022-10-30T21:23:06.920Z,100103.09
2022-10-30T21:25:36.137Z,100110.84
2022-10-30T21:28:06.138Z,100109.84
2022-10-30T21:30:34.910Z,100112.66
2022-10-30T21:33:04.798Z,100110.00
2022-10-30T21:35:33.532Z,100108.41
2022-10-30T21:38:02.685Z,100112.94
2022-10-30T21:40:32.922Z,100118.00
2022-10-30T21:43:04.384Z,100111.25
2022-10-30T21:45:33.643Z,100110.53
2022-10-30T21:48:03.028Z,100114.94
2022-10-30T21:50:32.217Z,100109.84
2022-10-30T21:53:01.947Z,100106.31
2022-10-30T21:55:31.933Z,100109.84
2022-10-30T21:58:01.682Z,100108.97
2022-10-30T22:00:30.566Z,100108.41
2022-10-30T22:03:00.026Z,100096.59
2022-10-30T22:05:28.069Z,100107.03
2022-10-30T22:07:56.269Z,100109.56
2022-10-30T22:10:24.563Z,100106.75
2022-10-30T22:12:55.601Z,100100.69
2022-10-30T22:15:24.571Z,100102.22
2022-10-30T22:17:53.728Z,100105.75
2022-10-30T22:20:25.197Z,100099.69
2022-10-30T22:22:54.766Z,100103.06
2022-10-30T22:25:23.584Z,100099.97
2022-10-30T22:27:52.978Z,100106.31
2022-10-30T22:30:24.409Z,100100.94
2022-10-30T22:32:53.581Z,100096.31
2022-10-30T22:35:21.650Z,100106.31
2022-10-30T22:37:51.214Z,100097.59
2022-10-30T22:40:19.578Z,100103.91
2022-10-30T22:42:49.756Z,100101.09
2022-10-30T22:45:18.611Z,100098.56
2022-10-30T22:47:49.312Z,100096.88
2022-10-30T22:50:17.669Z,100100.41
2022-10-30T22:52:48.519Z,100099.69
2022-10-30T22:55:16.874Z,100101.41
2022-10-30T22:57:45.999Z,100107.19
2022-10-30T23:00:19.145Z,100105.75
2022-10-30T23:02:49.045Z,100098.84
2022-10-30T23:05:17.274Z,100099.41
2022-10-30T23:07:47.431Z,100094.19
2022-10-30T23:10:16.618Z,100101.97
2022-10-30T23:12:46.798Z,100108.59
2022-10-30T23:15:15.983Z,100099.84
2022-10-30T23:17:47.112Z,100103.50
2022-10-30T23:20:18.286Z,100111.38
2022-10-30T23:22:46.607Z,100098.44
2022-10-30T23:25:15.781Z,100097.03
2022-10-30T23:27:43.788Z,100092.94
2022-10-30T23:30:13.612Z,100093.06
2022-10-30T23:32:43.350Z,100104.22
2022-10-30T23:35:12.861Z,100099.84
2022-10-30T23:37:46.773Z,100099.97
2022-10-30T23:40:15.929Z,100095.91
2022-10-30T23:42:47.187Z,100101.56
2022-10-30T23:45:16.711Z,100090.41
2022-10-30T23:47:44.839Z,100093.81
2022-10-30T23:50:14.296Z,100107.03
2022-10-30T23:52:47.760Z,100098.16
2022-10-30T23:55:16.886Z,100101.97
2022-10-30T23:57:46.014Z,100106.03
